createdAt,value
2023-04-14T00:00:13.230Z,14.00
2023-04-14T00:05:36.441Z,15.40
2023-04-14T00:10:40.063Z,15.80
2023-04-14T00:15:43.304Z,14.70
2023-04-14T00:20:48.025Z,16.33
2023-04-14T00:25:51.406Z,16.67
2023-04-14T00:30:54.722Z,16.93
2023-04-14T00:35:57.902Z,18.43
2023-04-14T00:41:01.463Z,16.37
2023-04-14T00:46:04.748Z,19.13
2023-04-14T00:51:09.398Z,19.03
2023-04-14T00:56:12.914Z,18.17
2023-04-14T01:01:16.716Z,16.83
2023-04-14T01:06:19.904Z,20.93
2023-04-14T01:11:41.257Z,19.27
2023-04-14T01:16:46.010Z,17.33
2023-04-14T01:21:53.839Z,17.70
2023-04-14T01:27:07.479Z,17.20
2023-04-14T01:32:15.138Z,16.73
2023-04-14T01:37:25.806Z,17.30
2023-04-14T01:42:33.659Z,16.70
2023-04-14T01:47:37.354Z,15.77
2023-04-14T01:52:43.075Z,17.73
2023-04-14T01:57:48.959Z,15.90
2023-04-14T02:02:53.940Z,16.17
2023-04-14T02:07:59.802Z,16.60
2023-04-14T02:13:04.318Z,18.03
2023-04-14T02:18:08.402Z,18.33
2023-04-14T02:23:15.277Z,18.03
2023-04-14T02:28:24.985Z,18.80
2023-04-14T02:33:33.740Z,20.07
2023-04-14T02:38:47.057Z,18.77
2023-04-14T02:43:58.380Z,19.90
2023-04-14T02:49:04.409Z,19.67
2023-04-14T02:54:08.136Z,18.63
2023-04-14T02:59:12.876Z,19.03
2023-04-14T03:04:18.094Z,20.33
2023-04-14T03:09:22.534Z,19.17
2023-04-14T03:14:26.957Z,20.00
2023-04-14T03:19:32.050Z,20.47
2023-04-14T03:24:36.487Z,21.03
2023-04-14T03:29:47.371Z,21.57
2023-04-14T03:34:54.591Z,21.13
2023-04-14T03:40:01.617Z,20.67
2023-04-14T03:45:05.567Z,20.63
2023-04-14T03:50:10.636Z,22.50
2023-04-14T03:55:16.129Z,21.47
2023-04-14T04:00:21.173Z,20.70
2023-04-14T04:05:25.089Z,22.60
2023-04-14T04:10:36.101Z,22.00
2023-04-14T04:15:41.303Z,22.00
2023-04-14T04:20:46.713Z,20.03
2023-04-14T04:25:50.628Z,19.83
2023-04-14T04:30:57.378Z,19.30
2023-04-14T04:36:01.707Z,18.83
2023-04-14T04:41:05.009Z,18.40
2023-04-14T04:46:26.738Z,17.07
2023-04-14T04:51:30.109Z,18.53
2023-04-14T04:56:34.032Z,18.67
2023-04-14T05:01:37.377Z,18.73
2023-04-14T05:06:40.655Z,19.30
2023-04-14T05:11:44.011Z,21.03
2023-04-14T05:16:47.654Z,21.37
2023-04-14T05:21:51.102Z,22.90
2023-04-14T05:27:12.210Z,20.73
2023-04-14T05:32:16.887Z,20.03
2023-04-14T05:37:20.351Z,18.47
2023-04-14T05:42:23.962Z,18.60
2023-04-14T05:47:27.232Z,18.47
2023-04-14T05:52:30.457Z,17.10
2023-04-14T05:57:33.601Z,17.90
2023-04-14T06:02:37.294Z,16.77
2023-04-14T06:07:43.624Z,17.00
2023-04-14T06:12:47.057Z,16.70
2023-04-14T06:17:50.393Z,15.03
2023-04-14T06:22:53.760Z,15.07
2023-04-14T06:27:57.492Z,16.50
2023-04-14T06:33:04.846Z,14.63
2023-04-14T06:38:08.293Z,14.63
2023-04-14T06:43:11.748Z,16.77
2023-04-14T06:48:16.011Z,14.10
2023-04-14T06:53:19.666Z,14.60
2023-04-14T06:58:23.121Z,14.87
2023-04-14T07:03:27.599Z,14.13
2023-04-14T07:08:33.166Z,16.00
2023-04-14T07:13:37.270Z,15.33
2023-04-14T07:18:40.441Z,15.67
2023-04-14T07:23:43.719Z,14.50
2023-04-14T07:28:47.603Z,13.77
2023-04-14T07:33:50.772Z,14.30
2023-04-14T07:38:54.372Z,13.37
2023-04-14T07:43:59.858Z,12.63
2023-04-14T07:49:04.016Z,12.47
2023-04-14T07:54:07.300Z,12.00
2023-04-14T07:59:10.830Z,11.67
2023-04-14T08:04:14.480Z,11.93
2023-04-14T08:09:17.888Z,11.07
2023-04-14T08:14:21.573Z,11.77
2023-04-14T08:19:24.758Z,12.33
2023-04-14T08:24:29.150Z,10.83
2023-04-14T08:29:32.375Z,11.10
2023-04-14T08:34:36.074Z,10.60
2023-04-14T08:39:39.250Z,9.57
2023-04-14T08:44:42.746Z,9.90
2023-04-14T08:50:16.916Z,9.70
2023-04-14T08:55:20.501Z,10.03
2023-04-14T09:00:24.279Z,8.83
2023-04-14T09:05:27.921Z,10.20
2023-04-14T09:10:32.012Z,8.87
2023-04-14T09:15:37.731Z,8.50
2023-04-14T09:20:41.890Z,8.90
2023-04-14T09:25:46.591Z,9.37
2023-04-14T09:30:49.972Z,7.40
2023-04-14T09:35:53.978Z,8.33
2023-04-14T09:40:57.503Z,8.90
2023-04-14T09:46:08.853Z,8.07
2023-04-14T09:51:14.388Z,9.20
2023-04-14T09:56:17.750Z,8.00
2023-04-14T10:01:21.853Z,8.40
2023-04-14T10:06:27.010Z,8.70
2023-04-14T10:11:33.167Z,8.90
2023-04-14T10:16:36.578Z,8.20
2023-04-14T10:21:40.249Z,8.35
2023-04-14T10:26:47.574Z,8.75
2023-04-14T10:31:57.748Z,6.23
2023-04-14T10:37:14.721Z,7.70
2023-04-14T10:42:17.935Z,7.03
2023-04-14T10:47:25.468Z,6.75
2023-04-14T10:52:28.686Z,8.40
2023-04-14T10:57:39.260Z,6.97
2023-04-14T11:02:57.198Z,7.80
2023-04-14T11:08:03.190Z,7.53
2023-04-14T11:13:09.527Z,6.60
2023-04-14T11:18:29.317Z,7.03
2023-04-14T11:23:33.169Z,6.70
2023-04-14T11:28:42.796Z,7.40
2023-04-14T11:33:46.847Z,8.07
2023-04-14T11:38:50.990Z,7.40
2023-04-14T11:43:54.636Z,7.70
2023-04-14T11:48:58.498Z,8.57
2023-04-14T11:54:02.589Z,8.52
2023-04-14T11:59:06.848Z,7.95
2023-04-14T12:04:10.968Z,8.60
2023-04-14T12:09:14.561Z,8.02
2023-04-14T12:14:17.832Z,8.27
2023-04-14T12:19:22.208Z,7.22
2023-04-14T12:24:33.533Z,5.75
2023-04-14T12:29:38.126Z,5.47
2023-04-14T12:34:41.434Z,7.53
2023-04-14T12:40:01.554Z,8.23
2023-04-14T12:45:06.091Z,7.40
2023-04-14T12:50:29.119Z,7.57
2023-04-14T12:55:32.752Z,8.60
2023-04-14T13:00:36.191Z,7.90
2023-04-14T13:05:39.556Z,6.95
2023-04-14T13:10:42.758Z,6.55
2023-04-14T13:16:13.161Z,6.55
2023-04-14T13:21:10.007Z,7.32
2023-04-14T13:26:13.409Z,6.63
2023-04-14T13:31:18.715Z,7.22
2023-04-14T13:36:23.230Z,7.15
2023-04-14T13:41:27.182Z,8.10
2023-04-14T13:46:34.384Z,6.72
2023-04-14T13:51:45.766Z,6.10
2023-04-14T13:56:48.975Z,6.25
2023-04-14T14:01:52.512Z,5.85
2023-04-14T14:06:55.843Z,5.85
2023-04-14T14:11:59.268Z,6.47
2023-04-14T14:17:02.610Z,5.40
2023-04-14T14:22:05.830Z,5.60
2023-04-14T14:27:09.306Z,4.55
2023-04-14T14:32:12.858Z,4.90
2023-04-14T14:37:16.574Z,4.47
2023-04-14T14:42:19.678Z,4.50
2023-04-14T14:47:22.967Z,3.78
2023-04-14T14:52:30.279Z,4.10
2023-04-14T14:57:34.253Z,4.53
2023-04-14T15:02:37.633Z,3.83
2023-04-14T15:07:41.103Z,3.97
2023-04-14T15:12:44.278Z,4.40
2023-04-14T15:17:47.859Z,4.25
2023-04-14T15:22:51.536Z,3.75
2023-04-14T15:27:55.385Z,3.92
2023-04-14T15:32:59.226Z,3.97
2023-04-14T15:38:03.378Z,3.88
2023-04-14T15:43:07.616Z,3.47
2023-04-14T15:48:12.001Z,3.67
2023-04-14T15:53:15.793Z,4.10
2023-04-14T15:58:20.211Z,4.70
2023-04-14T16:03:24.244Z,6.13
2023-04-14T16:08:27.772Z,4.60
2023-04-14T16:13:31.298Z,4.78
2023-04-14T16:18:37.268Z,4.90
2023-04-14T16:23:41.219Z,3.45
2023-04-14T16:28:44.407Z,3.70
2023-04-14T16:33:48.961Z,3.70
2023-04-14T16:38:53.558Z,3.00
2023-04-14T16:43:56.990Z,2.83
2023-04-14T16:49:01.653Z,3.30
2023-04-14T16:54:05.499Z,2.80
2023-04-14T16:59:10.232Z,2.90
2023-04-14T17:04:14.273Z,3.10
2023-04-14T17:09:20.833Z,4.33
2023-04-14T17:14:24.486Z,4.87
2023-04-14T17:19:28.427Z,5.50
2023-04-14T17:24:32.588Z,7.00
2023-04-14T17:29:36.677Z,6.83
2023-04-14T17:34:41.868Z,6.60
2023-04-14T17:39:50.335Z,7.10
2023-04-14T17:44:54.577Z,7.83
2023-04-14T17:49:59.682Z,8.03
2023-04-14T17:55:05.442Z,10.93
2023-04-14T18:00:15.526Z,8.37
2023-04-14T18:05:19.298Z,10.00
2023-04-14T18:10:24.418Z,9.67
2023-04-14T18:15:29.541Z,11.00
2023-04-14T18:20:34.253Z,8.53
2023-04-14T18:30:54.291Z,8.80
2023-04-14T18:36:01.739Z,10.90
2023-04-14T18:41:11.218Z,9.70
2023-04-14T18:46:15.673Z,9.10
2023-04-14T18:51:27.787Z,9.37
2023-04-14T18:56:34.780Z,8.23
2023-04-14T19:01:40.192Z,8.70
2023-04-14T19:06:46.340Z,9.10
2023-04-14T19:11:52.414Z,8.80
2023-04-14T19:16:58.967Z,9.33
2023-04-14T19:22:05.885Z,8.17
2023-04-14T19:27:11.093Z,7.87
2023-04-14T19:32:19.813Z,7.40
2023-04-14T19:37:25.238Z,7.23
2023-04-14T19:42:34.057Z,6.50
2023-04-14T19:47:40.500Z,6.07
2023-04-14T19:52:48.803Z,7.03
2023-04-14T19:57:53.336Z,7.10
2023-04-14T20:03:02.614Z,7.07
2023-04-14T20:08:08.253Z,7.07
2023-04-14T20:13:14.920Z,5.93
2023-04-14T20:18:34.347Z,6.50
2023-04-14T20:23:39.180Z,6.37
2023-04-14T20:28:44.083Z,7.40
2023-04-14T20:33:49.875Z,6.63
2023-04-14T20:38:53.902Z,7.53
2023-04-14T20:44:00.756Z,8.20
2023-04-14T20:49:05.160Z,7.90
2023-04-14T20:54:09.102Z,7.80
2023-04-14T20:59:13.344Z,10.20
2023-04-14T21:04:18.848Z,8.30
2023-04-14T21:09:31.436Z,8.03
2023-04-14T21:15:42.509Z,8.93
2023-04-14T21:20:04.093Z,9.10
2023-04-14T21:25:08.834Z,9.40
2023-04-14T21:30:12.050Z,10.43
2023-04-14T21:35:15.542Z,10.43
2023-04-14T21:40:18.821Z,10.10
2023-04-14T21:45:22.448Z,10.63
2023-04-14T21:50:25.636Z,10.40
2023-04-14T21:55:29.080Z,10.40
2023-04-14T22:00:32.353Z,10.90
2023-04-14T22:05:35.763Z,9.80
2023-04-14T22:10:43.566Z,9.57
2023-04-14T22:15:47.286Z,10.30
2023-04-14T22:20:50.572Z,10.90
2023-04-14T22:25:53.946Z,11.20
2023-04-14T22:30:57.324Z,9.80
2023-04-14T22:36:03.809Z,9.27
2023-04-14T22:41:07.094Z,10.03
2023-04-14T22:46:10.521Z,9.70
2023-04-14T22:51:13.861Z,10.00
2023-04-14T22:56:17.590Z,9.80
2023-04-14T23:01:22.641Z,10.47
2023-04-14T23:06:26.362Z,10.70
2023-04-14T23:11:29.599Z,10.20
2023-04-14T23:16:33.185Z,10.17
2023-04-14T23:21:36.370Z,11.00
2023-04-14T23:26:39.588Z,9.97
2023-04-14T23:31:42.958Z,9.87
2023-04-14T23:36:50.353Z,10.23
2023-04-14T23:41:53.619Z,10.20
2023-04-14T23:46:57.109Z,9.70
2023-04-14T23:52:00.318Z,9.80
2023-04-14T23:57:03.778Z,9.93
